KDEQ

J Lynn Helms Sevier County Airport

De Queen, Arkansas, USA
METAR KDEQ 170653Z AUTO 14005KT 3SM RA BR SCT006 OVC060 07/07 A3012 RMK AO2 SLP198 T00720072 PNO $
Observed Flight Rules
Dec-17 @ 06:53 UTC (an hour ago) Marginal Visual Flight Rules
Wind Visibility Clouds Conditions
140° at 5 knots 3 miles
  • Scattered at 600' AGL
  • Overcast at 6,000' AGL
  • Rain
  • Mist
Temperatures Readings
Current 7°C / 45°F
Dewpoint 7°C / 45°F
Humidity 100%
Altimeter 30.12" Hg
Pressure 1019.8 hPa
Elevation 106
METAR KDEQ 170653Z AUTO 14005KT 3SM RA BR SCT006 OVC060 07/07 A3012 RMK AO2 SLP198 T00720072 PNO $
Observed Flight Rules
Dec-17 @ 06:53 UTC
(an hour ago)
MVFR
Wind Visibility
140° at 5 knots 3 miles
Clouds
  • Scattered at 600' AGL
  • Overcast at 6,000' AGL
Conditions
  • Rain
  • Mist
Temperature Dewpoint
7°C / 45°F 7°C / 45°F
Humidity Altimeter Pressure
100% 30.12" Hg 1019.8 hPa